sensor_id;sensor_type;location;lat;lon;timestamp;P1;durP1;ratioP1;P2;durP2;ratioP2
23826;SDS011;12094;50.822;4.376;2023-06-14T00:02:02;13.60;;;7.53;;
23826;SDS011;12094;50.822;4.376;2023-06-14T00:04:31;25.60;;;15.02;;
23826;SDS011;12094;50.822;4.376;2023-06-14T00:06:59;10.70;;;7.03;;
23826;SDS011;12094;50.822;4.376;2023-06-14T00:09:26;16.60;;;8.40;;
23826;SDS011;12094;50.822;4.376;2023-06-14T00:11:54;8.73;;;6.93;;
23826;SDS011;12094;50.822;4.376;2023-06-14T00:14:32;12.48;;;6.88;;
23826;SDS011;12094;50.822;4.376;2023-06-14T00:16:59;10.60;;;7.25;;
23826;SDS011;12094;50.822;4.376;2023-06-14T00:19:28;13.50;;;7.22;;
23826;SDS011;12094;50.822;4.376;2023-06-14T00:22:00;11.53;;;7.10;;
23826;SDS011;12094;50.822;4.376;2023-06-14T00:24:30;12.27;;;7.05;;
23826;SDS011;12094;50.822;4.376;2023-06-14T00:26:57;16.27;;;7.47;;
23826;SDS011;12094;50.822;4.376;2023-06-14T00:29:24;12.43;;;7.07;;
23826;SDS011;12094;50.822;4.376;2023-06-14T00:31:52;17.17;;;7.22;;
23826;SDS011;12094;50.822;4.376;2023-06-14T00:34:19;12.88;;;7.10;;
23826;SDS011;12094;50.822;4.376;2023-06-14T00:36:46;10.32;;;7.03;;
23826;SDS011;12094;50.822;4.376;2023-06-14T00:39:13;11.00;;;7.38;;
23826;SDS011;12094;50.822;4.376;2023-06-14T00:41:41;9.68;;;6.93;;
23826;SDS011;12094;50.822;4.376;2023-06-14T00:44:09;10.70;;;7.22;;
23826;SDS011;12094;50.822;4.376;2023-06-14T00:46:38;12.75;;;7.13;;
23826;SDS011;12094;50.822;4.376;2023-06-14T00:49:08;9.88;;;7.32;;
23826;SDS011;12094;50.822;4.376;2023-06-14T00:54:10;12.93;;;7.47;;
23826;SDS011;12094;50.822;4.376;2023-06-14T00:56:47;13.45;;;7.50;;
23826;SDS011;12094;50.822;4.376;2023-06-14T00:59:14;13.65;;;7.50;;
23826;SDS011;12094;50.822;4.376;2023-06-14T01:01:43;12.85;;;7.65;;
23826;SDS011;12094;50.822;4.376;2023-06-14T01:04:11;14.38;;;7.13;;
23826;SDS011;12094;50.822;4.376;2023-06-14T01:06:45;11.63;;;7.13;;
23826;SDS011;12094;50.822;4.376;2023-06-14T01:14:31;11.27;;;7.57;;
23826;SDS011;12094;50.822;4.376;2023-06-14T01:17:00;16.42;;;7.22;;
23826;SDS011;12094;50.822;4.376;2023-06-14T01:19:29;12.65;;;7.55;;
23826;SDS011;12094;50.822;4.376;2023-06-14T01:22:01;12.70;;;7.70;;
23826;SDS011;12094;50.822;4.376;2023-06-14T01:24:29;9.80;;;7.50;;
23826;SDS011;12094;50.822;4.376;2023-06-14T01:27:02;13.80;;;7.60;;
23826;SDS011;12094;50.822;4.376;2023-06-14T01:29:31;14.50;;;7.65;;
23826;SDS011;12094;50.822;4.376;2023-06-14T01:31:59;12.18;;;7.80;;
23826;SDS011;12094;50.822;4.376;2023-06-14T01:34:29;12.77;;;7.63;;
23826;SDS011;12094;50.822;4.376;2023-06-14T01:36:56;12.48;;;8.07;;
23826;SDS011;12094;50.822;4.376;2023-06-14T01:39:26;12.20;;;7.82;;
23826;SDS011;12094;50.822;4.376;2023-06-14T01:41:57;11.93;;;8.15;;
23826;SDS011;12094;50.822;4.376;2023-06-14T01:44:28;11.15;;;7.53;;
23826;SDS011;12094;50.822;4.376;2023-06-14T01:50:04;10.80;;;7.70;;
23826;SDS011;12094;50.822;4.376;2023-06-14T01:53:07;19.30;;;8.65;;
23826;SDS011;12094;50.822;4.376;2023-06-14T01:55:57;13.40;;;8.05;;
23826;SDS011;12094;50.822;4.376;2023-06-14T01:58:33;13.68;;;8.05;;
23826;SDS011;12094;50.822;4.376;2023-06-14T02:01:16;13.50;;;8.23;;
23826;SDS011;12094;50.822;4.376;2023-06-14T02:03:46;22.45;;;8.73;;
23826;SDS011;12094;50.822;4.376;2023-06-14T02:06:19;12.60;;;8.70;;
23826;SDS011;12094;50.822;4.376;2023-06-14T02:08:47;11.82;;;8.70;;
23826;SDS011;12094;50.822;4.376;2023-06-14T02:11:18;14.20;;;7.63;;
23826;SDS011;12094;50.822;4.376;2023-06-14T02:13:45;12.15;;;8.23;;
23826;SDS011;12094;50.822;4.376;2023-06-14T02:16:16;11.40;;;9.07;;
23826;SDS011;12094;50.822;4.376;2023-06-14T02:18:44;17.00;;;8.63;;
23826;SDS011;12094;50.822;4.376;2023-06-14T02:21:13;18.00;;;8.60;;
23826;SDS011;12094;50.822;4.376;2023-06-14T02:23:41;13.02;;;8.60;;
23826;SDS011;12094;50.822;4.376;2023-06-14T02:26:20;12.73;;;9.00;;
23826;SDS011;12094;50.822;4.376;2023-06-14T02:28:49;15.40;;;9.00;;
23826;SDS011;12094;50.822;4.376;2023-06-14T02:31:18;13.80;;;9.15;;
23826;SDS011;12094;50.822;4.376;2023-06-14T02:33:47;15.50;;;8.63;;
23826;SDS011;12094;50.822;4.376;2023-06-14T02:36:20;14.52;;;8.80;;
23826;SDS011;12094;50.822;4.376;2023-06-14T02:38:48;15.70;;;9.40;;
23826;SDS011;12094;50.822;4.376;2023-06-14T02:41:18;13.68;;;9.35;;
23826;SDS011;12094;50.822;4.376;2023-06-14T02:43:45;15.18;;;9.18;;
23826;SDS011;12094;50.822;4.376;2023-06-14T02:46:13;15.77;;;9.18;;
23826;SDS011;12094;50.822;4.376;2023-06-14T02:48:42;20.45;;;9.85;;
23826;SDS011;12094;50.822;4.376;2023-06-14T02:51:09;15.60;;;9.38;;
23826;SDS011;12094;50.822;4.376;2023-06-14T02:53:38;13.80;;;8.77;;
23826;SDS011;12094;50.822;4.376;2023-06-14T02:56:05;12.88;;;9.70;;
23826;SDS011;12094;50.822;4.376;2023-06-14T02:58:34;15.10;;;10.20;;
23826;SDS011;12094;50.822;4.376;2023-06-14T03:01:04;16.10;;;9.65;;
23826;SDS011;12094;50.822;4.376;2023-06-14T03:03:34;17.00;;;10.57;;
23826;SDS011;12094;50.822;4.376;2023-06-14T03:06:04;13.80;;;9.52;;
23826;SDS011;12094;50.822;4.376;2023-06-14T03:08:35;17.75;;;9.70;;
23826;SDS011;12094;50.822;4.376;2023-06-14T03:11:11;15.75;;;10.15;;
23826;SDS011;12094;50.822;4.376;2023-06-14T03:13:40;14.38;;;9.27;;
23826;SDS011;12094;50.822;4.376;2023-06-14T03:16:08;16.35;;;9.70;;
23826;SDS011;12094;50.822;4.376;2023-06-14T03:18:38;19.25;;;10.05;;
23826;SDS011;12094;50.822;4.376;2023-06-14T03:21:08;20.60;;;10.35;;
23826;SDS011;12094;50.822;4.376;2023-06-14T03:23:42;18.15;;;10.52;;
23826;SDS011;12094;50.822;4.376;2023-06-14T03:26:11;17.70;;;10.00;;
23826;SDS011;12094;50.822;4.376;2023-06-14T03:28:47;13.15;;;9.93;;
23826;SDS011;12094;50.822;4.376;2023-06-14T03:31:19;12.57;;;10.15;;
23826;SDS011;12094;50.822;4.376;2023-06-14T03:33:48;18.45;;;10.77;;
23826;SDS011;12094;50.822;4.376;2023-06-14T03:36:17;17.45;;;10.45;;
23826;SDS011;12094;50.822;4.376;2023-06-14T03:38:44;21.33;;;10.63;;
23826;SDS011;12094;50.822;4.376;2023-06-14T03:41:14;16.38;;;10.93;;
23826;SDS011;12094;50.822;4.376;2023-06-14T03:43:43;12.98;;;9.70;;
23826;SDS011;12094;50.822;4.376;2023-06-14T03:46:11;13.20;;;9.93;;
23826;SDS011;12094;50.822;4.376;2023-06-14T03:48:39;17.10;;;10.07;;
23826;SDS011;12094;50.822;4.376;2023-06-14T03:51:08;13.75;;;9.65;;
23826;SDS011;12094;50.822;4.376;2023-06-14T03:53:37;16.33;;;10.57;;
23826;SDS011;12094;50.822;4.376;2023-06-14T03:56:23;14.80;;;10.38;;
23826;SDS011;12094;50.822;4.376;2023-06-14T03:58:52;17.60;;;10.43;;
23826;SDS011;12094;50.822;4.376;2023-06-14T04:03:59;15.77;;;10.27;;
23826;SDS011;12094;50.822;4.376;2023-06-14T04:06:36;19.90;;;10.90;;
23826;SDS011;12094;50.822;4.376;2023-06-14T04:09:04;15.48;;;10.10;;
23826;SDS011;12094;50.822;4.376;2023-06-14T04:11:32;15.73;;;9.82;;
23826;SDS011;12094;50.822;4.376;2023-06-14T04:14:01;16.60;;;10.25;;
23826;SDS011;12094;50.822;4.376;2023-06-14T04:16:31;16.25;;;10.20;;
23826;SDS011;12094;50.822;4.376;2023-06-14T04:19:00;14.10;;;9.95;;
23826;SDS011;12094;50.822;4.376;2023-06-14T04:21:30;13.93;;;9.55;;
23826;SDS011;12094;50.822;4.376;2023-06-14T04:24:02;17.38;;;9.95;;
23826;SDS011;12094;50.822;4.376;2023-06-14T04:26:33;16.98;;;10.32;;
23826;SDS011;12094;50.822;4.376;2023-06-14T04:29:02;18.40;;;9.93;;
23826;SDS011;12094;50.822;4.376;2023-06-14T04:31:35;21.80;;;10.13;;
23826;SDS011;12094;50.822;4.376;2023-06-14T04:34:10;15.18;;;9.85;;
23826;SDS011;12094;50.822;4.376;2023-06-14T04:36:50;15.70;;;9.93;;
23826;SDS011;12094;50.822;4.376;2023-06-14T04:39:26;15.32;;;10.02;;
23826;SDS011;12094;50.822;4.376;2023-06-14T04:41:54;20.42;;;10.45;;
23826;SDS011;12094;50.822;4.376;2023-06-14T04:44:25;18.58;;;10.75;;
23826;SDS011;12094;50.822;4.376;2023-06-14T04:47:02;16.85;;;10.05;;
23826;SDS011;12094;50.822;4.376;2023-06-14T04:49:36;13.85;;;10.23;;
23826;SDS011;12094;50.822;4.376;2023-06-14T04:52:08;16.15;;;10.20;;
23826;SDS011;12094;50.822;4.376;2023-06-14T04:54:46;21.23;;;10.20;;
23826;SDS011;12094;50.822;4.376;2023-06-14T04:59:48;17.67;;;10.60;;
23826;SDS011;12094;50.822;4.376;2023-06-14T05:02:25;16.52;;;10.77;;
23826;SDS011;12094;50.822;4.376;2023-06-14T05:04:57;16.10;;;10.15;;
23826;SDS011;12094;50.822;4.376;2023-06-14T05:07:27;14.65;;;10.10;;
23826;SDS011;12094;50.822;4.376;2023-06-14T05:09:54;13.45;;;9.75;;
23826;SDS011;12094;50.822;4.376;2023-06-14T05:12:23;20.92;;;15.48;;
23826;SDS011;12094;50.822;4.376;2023-06-14T05:14:52;24.98;;;10.65;;
23826;SDS011;12094;50.822;4.376;2023-06-14T05:17:22;15.70;;;9.68;;
23826;SDS011;12094;50.822;4.376;2023-06-14T05:19:52;17.05;;;10.27;;
23826;SDS011;12094;50.822;4.376;2023-06-14T05:22:20;22.67;;;10.38;;
23826;SDS011;12094;50.822;4.376;2023-06-14T05:24:50;20.10;;;11.68;;
23826;SDS011;12094;50.822;4.376;2023-06-14T05:27:18;15.45;;;10.57;;
23826;SDS011;12094;50.822;4.376;2023-06-14T05:29:46;17.25;;;11.00;;
23826;SDS011;12094;50.822;4.376;2023-06-14T05:32:13;15.73;;;10.85;;
23826;SDS011;12094;50.822;4.376;2023-06-14T05:34:42;18.30;;;10.48;;
23826;SDS011;12094;50.822;4.376;2023-06-14T05:37:14;18.23;;;11.07;;
23826;SDS011;12094;50.822;4.376;2023-06-14T05:39:43;18.02;;;10.63;;
23826;SDS011;12094;50.822;4.376;2023-06-14T05:42:12;14.82;;;10.27;;
23826;SDS011;12094;50.822;4.376;2023-06-14T05:44:39;21.55;;;11.32;;
23826;SDS011;12094;50.822;4.376;2023-06-14T05:47:09;22.20;;;11.15;;
23826;SDS011;12094;50.822;4.376;2023-06-14T05:49:36;17.40;;;10.27;;
23826;SDS011;12094;50.822;4.376;2023-06-14T05:52:03;15.02;;;10.57;;
23826;SDS011;12094;50.822;4.376;2023-06-14T05:54:32;16.13;;;10.27;;
23826;SDS011;12094;50.822;4.376;2023-06-14T05:56:59;19.98;;;9.98;;
23826;SDS011;12094;50.822;4.376;2023-06-14T05:59:28;17.13;;;9.98;;
23826;SDS011;12094;50.822;4.376;2023-06-14T06:01:57;18.83;;;10.15;;
23826;SDS011;12094;50.822;4.376;2023-06-14T06:04:26;18.60;;;9.98;;
23826;SDS011;12094;50.822;4.376;2023-06-14T06:06:57;18.33;;;10.77;;
23826;SDS011;12094;50.822;4.376;2023-06-14T06:09:27;19.63;;;9.77;;
23826;SDS011;12094;50.822;4.376;2023-06-14T06:12:08;15.35;;;10.05;;
23826;SDS011;12094;50.822;4.376;2023-06-14T06:14:41;17.35;;;10.10;;
23826;SDS011;12094;50.822;4.376;2023-06-14T06:17:11;14.57;;;9.73;;
23826;SDS011;12094;50.822;4.376;2023-06-14T06:19:42;19.45;;;9.88;;
23826;SDS011;12094;50.822;4.376;2023-06-14T06:22:12;14.85;;;10.02;;
23826;SDS011;12094;50.822;4.376;2023-06-14T06:24:41;17.67;;;10.30;;
23826;SDS011;12094;50.822;4.376;2023-06-14T06:27:17;14.23;;;9.43;;
23826;SDS011;12094;50.822;4.376;2023-06-14T06:29:46;12.23;;;9.10;;
23826;SDS011;12094;50.822;4.376;2023-06-14T06:32:19;17.05;;;9.45;;
23826;SDS011;12094;50.822;4.376;2023-06-14T06:37:46;18.33;;;9.27;;
23826;SDS011;12094;50.822;4.376;2023-06-14T06:40:18;12.90;;;8.90;;
23826;SDS011;12094;50.822;4.376;2023-06-14T06:42:47;17.55;;;9.38;;
23826;SDS011;12094;50.822;4.376;2023-06-14T06:45:21;22.42;;;9.43;;
23826;SDS011;12094;50.822;4.376;2023-06-14T06:47:53;18.02;;;9.90;;
23826;SDS011;12094;50.822;4.376;2023-06-14T06:50:23;13.65;;;8.80;;
23826;SDS011;12094;50.822;4.376;2023-06-14T06:57:06;19.60;;;9.20;;
23826;SDS011;12094;50.822;4.376;2023-06-14T06:59:38;13.25;;;9.05;;
23826;SDS011;12094;50.822;4.376;2023-06-14T07:02:12;13.10;;;8.48;;
23826;SDS011;12094;50.822;4.376;2023-06-14T07:08:19;13.73;;;9.15;;
23826;SDS011;12094;50.822;4.376;2023-06-14T07:10:53;15.55;;;8.60;;
23826;SDS011;12094;50.822;4.376;2023-06-14T07:13:25;13.85;;;8.23;;
23826;SDS011;12094;50.822;4.376;2023-06-14T07:15:57;16.42;;;8.88;;
23826;SDS011;12094;50.822;4.376;2023-06-14T07:18:33;15.95;;;7.93;;
23826;SDS011;12094;50.822;4.376;2023-06-14T07:21:02;15.55;;;8.23;;
23826;SDS011;12094;50.822;4.376;2023-06-14T07:23:33;13.38;;;7.95;;
23826;SDS011;12094;50.822;4.376;2023-06-14T07:26:01;14.57;;;8.60;;
23826;SDS011;12094;50.822;4.376;2023-06-14T07:28:31;18.33;;;7.90;;
23826;SDS011;12094;50.822;4.376;2023-06-14T07:31:00;15.48;;;8.15;;
23826;SDS011;12094;50.822;4.376;2023-06-14T07:33:29;13.57;;;8.30;;
23826;SDS011;12094;50.822;4.376;2023-06-14T07:36:04;13.77;;;8.63;;
23826;SDS011;12094;50.822;4.376;2023-06-14T07:38:31;17.95;;;8.15;;
23826;SDS011;12094;50.822;4.376;2023-06-14T07:41:03;11.85;;;7.95;;
23826;SDS011;12094;50.822;4.376;2023-06-14T07:43:33;18.90;;;8.43;;
23826;SDS011;12094;50.822;4.376;2023-06-14T07:46:00;17.98;;;8.13;;
23826;SDS011;12094;50.822;4.376;2023-06-14T07:48:35;13.77;;;8.27;;
23826;SDS011;12094;50.822;4.376;2023-06-14T07:51:08;9.23;;;7.20;;
23826;SDS011;12094;50.822;4.376;2023-06-14T07:53:45;14.77;;;7.40;;
23826;SDS011;12094;50.822;4.376;2023-06-14T07:56:14;11.07;;;7.43;;
23826;SDS011;12094;50.822;4.376;2023-06-14T07:58:42;17.50;;;7.35;;
23826;SDS011;12094;50.822;4.376;2023-06-14T08:01:09;12.52;;;7.43;;
23826;SDS011;12094;50.822;4.376;2023-06-14T08:03:36;18.58;;;7.47;;
23826;SDS011;12094;50.822;4.376;2023-06-14T08:06:06;13.25;;;7.53;;
23826;SDS011;12094;50.822;4.376;2023-06-14T08:08:38;8.20;;;7.03;;
23826;SDS011;12094;50.822;4.376;2023-06-14T08:11:06;16.33;;;7.18;;
23826;SDS011;12094;50.822;4.376;2023-06-14T08:13:38;15.60;;;6.78;;
23826;SDS011;12094;50.822;4.376;2023-06-14T08:16:05;13.30;;;7.40;;
23826;SDS011;12094;50.822;4.376;2023-06-14T08:18:35;12.93;;;7.07;;
23826;SDS011;12094;50.822;4.376;2023-06-14T08:21:05;11.05;;;6.90;;
23826;SDS011;12094;50.822;4.376;2023-06-14T08:23:41;14.90;;;7.15;;
23826;SDS011;12094;50.822;4.376;2023-06-14T08:26:11;12.80;;;7.43;;
23826;SDS011;12094;50.822;4.376;2023-06-14T08:28:40;13.45;;;7.82;;
23826;SDS011;12094;50.822;4.376;2023-06-14T08:31:10;17.05;;;7.25;;
23826;SDS011;12094;50.822;4.376;2023-06-14T08:33:47;12.20;;;7.28;;
23826;SDS011;12094;50.822;4.376;2023-06-14T08:36:15;12.48;;;7.13;;
23826;SDS011;12094;50.822;4.376;2023-06-14T08:38:43;13.18;;;7.10;;
23826;SDS011;12094;50.822;4.376;2023-06-14T08:41:11;23.80;;;7.45;;
23826;SDS011;12094;50.822;4.376;2023-06-14T08:43:42;13.32;;;7.05;;
23826;SDS011;12094;50.822;4.376;2023-06-14T08:46:10;12.75;;;7.82;;
23826;SDS011;12094;50.822;4.376;2023-06-14T08:48:46;12.43;;;7.80;;
23826;SDS011;12094;50.822;4.376;2023-06-14T08:51:17;20.40;;;7.53;;
23826;SDS011;12094;50.822;4.376;2023-06-14T08:53:55;10.15;;;7.75;;
23826;SDS011;12094;50.822;4.376;2023-06-14T08:56:28;13.70;;;6.82;;
23826;SDS011;12094;50.822;4.376;2023-06-14T08:58:58;12.10;;;6.97;;
23826;SDS011;12094;50.822;4.376;2023-06-14T09:01:33;17.80;;;6.95;;
23826;SDS011;12094;50.822;4.376;2023-06-14T09:04:07;12.98;;;7.57;;
23826;SDS011;12094;50.822;4.376;2023-06-14T09:06:39;18.92;;;7.85;;
23826;SDS011;12094;50.822;4.376;2023-06-14T09:09:07;9.93;;;7.88;;
23826;SDS011;12094;50.822;4.376;2023-06-14T09:11:37;15.23;;;7.53;;
23826;SDS011;12094;50.822;4.376;2023-06-14T09:14:04;14.63;;;7.95;;
23826;SDS011;12094;50.822;4.376;2023-06-14T09:16:35;20.52;;;7.20;;
23826;SDS011;12094;50.822;4.376;2023-06-14T09:19:02;12.82;;;8.05;;
23826;SDS011;12094;50.822;4.376;2023-06-14T09:21:35;12.95;;;7.00;;
23826;SDS011;12094;50.822;4.376;2023-06-14T09:24:21;19.38;;;7.53;;
23826;SDS011;12094;50.822;4.376;2023-06-14T09:26:53;15.40;;;7.53;;
23826;SDS011;12094;50.822;4.376;2023-06-14T09:29:27;9.70;;;7.53;;
23826;SDS011;12094;50.822;4.376;2023-06-14T09:31:55;16.30;;;8.32;;
23826;SDS011;12094;50.822;4.376;2023-06-14T09:34:30;12.10;;;7.30;;
23826;SDS011;12094;50.822;4.376;2023-06-14T09:39:49;11.90;;;6.90;;
23826;SDS011;12094;50.822;4.376;2023-06-14T09:42:22;11.88;;;7.18;;
23826;SDS011;12094;50.822;4.376;2023-06-14T09:44:54;12.10;;;7.25;;
23826;SDS011;12094;50.822;4.376;2023-06-14T09:47:23;16.42;;;6.88;;
23826;SDS011;12094;50.822;4.376;2023-06-14T09:49:54;13.88;;;7.20;;
23826;SDS011;12094;50.822;4.376;2023-06-14T09:52:25;16.85;;;7.57;;
23826;SDS011;12094;50.822;4.376;2023-06-14T09:54:58;12.55;;;7.43;;
23826;SDS011;12094;50.822;4.376;2023-06-14T09:57:29;12.60;;;7.10;;
23826;SDS011;12094;50.822;4.376;2023-06-14T10:00:02;14.55;;;7.18;;
23826;SDS011;12094;50.822;4.376;2023-06-14T10:02:38;15.63;;;7.55;;
23826;SDS011;12094;50.822;4.376;2023-06-14T10:05:12;10.30;;;6.80;;
23826;SDS011;12094;50.822;4.376;2023-06-14T10:10:15;14.15;;;7.18;;
23826;SDS011;12094;50.822;4.376;2023-06-14T10:12:44;10.52;;;6.72;;
23826;SDS011;12094;50.822;4.376;2023-06-14T10:15:28;10.40;;;6.68;;
23826;SDS011;12094;50.822;4.376;2023-06-14T10:18:19;12.63;;;6.90;;
23826;SDS011;12094;50.822;4.376;2023-06-14T10:23:55;10.15;;;6.40;;
23826;SDS011;12094;50.822;4.376;2023-06-14T10:26:31;16.63;;;6.50;;
23826;SDS011;12094;50.822;4.376;2023-06-14T10:29:07;14.93;;;7.03;;
23826;SDS011;12094;50.822;4.376;2023-06-14T10:31:40;14.43;;;8.00;;
23826;SDS011;12094;50.822;4.376;2023-06-14T10:34:58;14.18;;;7.35;;
23826;SDS011;12094;50.822;4.376;2023-06-14T10:40:29;12.80;;;7.47;;
23826;SDS011;12094;50.822;4.376;2023-06-14T10:42:58;13.35;;;6.85;;
23826;SDS011;12094;50.822;4.376;2023-06-14T10:51:23;10.55;;;6.72;;
23826;SDS011;12094;50.822;4.376;2023-06-14T10:53:59;10.68;;;6.80;;
23826;SDS011;12094;50.822;4.376;2023-06-14T10:56:33;19.35;;;7.05;;
23826;SDS011;12094;50.822;4.376;2023-06-14T10:59:04;11.65;;;7.07;;
23826;SDS011;12094;50.822;4.376;2023-06-14T11:01:36;15.90;;;6.80;;
23826;SDS011;12094;50.822;4.376;2023-06-14T11:10:38;10.82;;;5.60;;
23826;SDS011;12094;50.822;4.376;2023-06-14T11:13:17;14.30;;;5.85;;
23826;SDS011;12094;50.822;4.376;2023-06-14T11:15:47;11.48;;;5.65;;
23826;SDS011;12094;50.822;4.376;2023-06-14T11:18:18;17.30;;;5.97;;
23826;SDS011;12094;50.822;4.376;2023-06-14T11:20:53;12.63;;;6.40;;
23826;SDS011;12094;50.822;4.376;2023-06-14T11:23:51;12.07;;;5.22;;
23826;SDS011;12094;50.822;4.376;2023-06-14T11:26:26;13.73;;;6.00;;
23826;SDS011;12094;50.822;4.376;2023-06-14T11:28:58;15.93;;;5.68;;
23826;SDS011;12094;50.822;4.376;2023-06-14T11:31:32;14.23;;;5.45;;
23826;SDS011;12094;50.822;4.376;2023-06-14T11:34:01;14.95;;;6.25;;
23826;SDS011;12094;50.822;4.376;2023-06-14T11:36:31;12.95;;;5.50;;
23826;SDS011;12094;50.822;4.376;2023-06-14T11:39:07;11.05;;;5.68;;
23826;SDS011;12094;50.822;4.376;2023-06-14T11:44:22;14.20;;;6.13;;
23826;SDS011;12094;50.822;4.376;2023-06-14T11:46:55;11.52;;;5.50;;
23826;SDS011;12094;50.822;4.376;2023-06-14T11:49:34;11.93;;;5.70;;
23826;SDS011;12094;50.822;4.376;2023-06-14T11:52:03;8.80;;;5.32;;
23826;SDS011;12094;50.822;4.376;2023-06-14T11:54:34;9.05;;;5.57;;
23826;SDS011;12094;50.822;4.376;2023-06-14T11:57:03;10.77;;;5.60;;
23826;SDS011;12094;50.822;4.376;2023-06-14T11:59:40;12.70;;;5.28;;
23826;SDS011;12094;50.822;4.376;2023-06-14T12:02:07;12.13;;;5.32;;
23826;SDS011;12094;50.822;4.376;2023-06-14T12:04:36;14.98;;;5.35;;
23826;SDS011;12094;50.822;4.376;2023-06-14T12:07:17;13.68;;;5.65;;
23826;SDS011;12094;50.822;4.376;2023-06-14T12:12:46;14.35;;;5.30;;
23826;SDS011;12094;50.822;4.376;2023-06-14T12:15:15;13.45;;;5.28;;
23826;SDS011;12094;50.822;4.376;2023-06-14T12:17:43;9.70;;;5.15;;
23826;SDS011;12094;50.822;4.376;2023-06-14T12:20:12;16.05;;;5.18;;
23826;SDS011;12094;50.822;4.376;2023-06-14T12:22:56;21.63;;;5.23;;
23826;SDS011;12094;50.822;4.376;2023-06-14T12:25:30;10.43;;;5.35;;
23826;SDS011;12094;50.822;4.376;2023-06-14T12:28:03;12.88;;;5.38;;
23826;SDS011;12094;50.822;4.376;2023-06-14T12:30:32;16.55;;;5.50;;
23826;SDS011;12094;50.822;4.376;2023-06-14T12:36:38;7.47;;;4.38;;
23826;SDS011;12094;50.822;4.376;2023-06-14T12:39:26;13.52;;;4.90;;
23826;SDS011;12094;50.822;4.376;2023-06-14T12:41:55;10.07;;;5.38;;
23826;SDS011;12094;50.822;4.376;2023-06-14T12:44:23;7.93;;;4.85;;
23826;SDS011;12094;50.822;4.376;2023-06-14T12:46:51;7.97;;;4.57;;
23826;SDS011;12094;50.822;4.376;2023-06-14T12:49:21;8.38;;;4.80;;
23826;SDS011;12094;50.822;4.376;2023-06-14T12:51:49;12.10;;;5.25;;
23826;SDS011;12094;50.822;4.376;2023-06-14T12:54:19;9.57;;;4.85;;
23826;SDS011;12094;50.822;4.376;2023-06-14T12:57:07;10.75;;;4.50;;
23826;SDS011;12094;50.822;4.376;2023-06-14T12:59:36;8.32;;;4.78;;
23826;SDS011;12094;50.822;4.376;2023-06-14T13:04:44;9.15;;;4.47;;
23826;SDS011;12094;50.822;4.376;2023-06-14T13:07:11;6.63;;;4.38;;
23826;SDS011;12094;50.822;4.376;2023-06-14T13:09:39;12.05;;;4.50;;
23826;SDS011;12094;50.822;4.376;2023-06-14T13:12:08;9.02;;;4.60;;
23826;SDS011;12094;50.822;4.376;2023-06-14T13:14:41;9.70;;;4.43;;
23826;SDS011;12094;50.822;4.376;2023-06-14T13:17:11;7.57;;;4.45;;
23826;SDS011;12094;50.822;4.376;2023-06-14T13:19:40;10.52;;;4.25;;
23826;SDS011;12094;50.822;4.376;2023-06-14T13:22:09;8.80;;;4.28;;
23826;SDS011;12094;50.822;4.376;2023-06-14T13:24:39;7.00;;;4.22;;
23826;SDS011;12094;50.822;4.376;2023-06-14T13:27:07;10.48;;;3.90;;
23826;SDS011;12094;50.822;4.376;2023-06-14T13:29:35;9.32;;;3.88;;
23826;SDS011;12094;50.822;4.376;2023-06-14T13:32:03;8.88;;;4.10;;
23826;SDS011;12094;50.822;4.376;2023-06-14T13:34:34;10.43;;;3.93;;
23826;SDS011;12094;50.822;4.376;2023-06-14T13:37:03;8.35;;;3.88;;
23826;SDS011;12094;50.822;4.376;2023-06-14T13:48:26;9.95;;;3.85;;
23826;SDS011;12094;50.822;4.376;2023-06-14T13:54:35;9.63;;;3.70;;
23826;SDS011;12094;50.822;4.376;2023-06-14T13:57:07;6.35;;;3.40;;
23826;SDS011;12094;50.822;4.376;2023-06-14T13:59:54;7.82;;;3.67;;
23826;SDS011;12094;50.822;4.376;2023-06-14T14:02:42;5.63;;;3.40;;
23826;SDS011;12094;50.822;4.376;2023-06-14T14:05:10;10.05;;;3.90;;
23826;SDS011;12094;50.822;4.376;2023-06-14T14:07:41;17.52;;;3.88;;
23826;SDS011;12094;50.822;4.376;2023-06-14T14:10:10;9.15;;;3.17;;
23826;SDS011;12094;50.822;4.376;2023-06-14T14:12:41;4.57;;;3.20;;
23826;SDS011;12094;50.822;4.376;2023-06-14T14:15:12;6.32;;;3.00;;
23826;SDS011;12094;50.822;4.376;2023-06-14T14:17:41;9.38;;;3.17;;
23826;SDS011;12094;50.822;4.376;2023-06-14T14:20:12;6.45;;;2.88;;
23826;SDS011;12094;50.822;4.376;2023-06-14T14:22:44;7.30;;;2.72;;
23826;SDS011;12094;50.822;4.376;2023-06-14T14:25:13;10.68;;;3.10;;
23826;SDS011;12094;50.822;4.376;2023-06-14T14:27:47;5.53;;;2.97;;
23826;SDS011;12094;50.822;4.376;2023-06-14T14:30:34;4.13;;;2.45;;
23826;SDS011;12094;50.822;4.376;2023-06-14T14:33:06;5.13;;;2.58;;
23826;SDS011;12094;50.822;4.376;2023-06-14T14:35:39;7.35;;;2.72;;
23826;SDS011;12094;50.822;4.376;2023-06-14T14:38:14;6.10;;;2.60;;
23826;SDS011;12094;50.822;4.376;2023-06-14T14:40:48;5.93;;;2.10;;
23826;SDS011;12094;50.822;4.376;2023-06-14T14:43:16;6.03;;;2.30;;
23826;SDS011;12094;50.822;4.376;2023-06-14T14:45:46;9.68;;;2.30;;
23826;SDS011;12094;50.822;4.376;2023-06-14T14:48:14;5.70;;;2.20;;
23826;SDS011;12094;50.822;4.376;2023-06-14T14:50:46;4.50;;;2.22;;
23826;SDS011;12094;50.822;4.376;2023-06-14T14:53:17;4.72;;;2.03;;
23826;SDS011;12094;50.822;4.376;2023-06-14T14:55:51;6.05;;;1.98;;
23826;SDS011;12094;50.822;4.376;2023-06-14T14:58:21;5.90;;;2.08;;
23826;SDS011;12094;50.822;4.376;2023-06-14T15:03:46;3.13;;;2.03;;
23826;SDS011;12094;50.822;4.376;2023-06-14T15:06:16;6.53;;;2.20;;
23826;SDS011;12094;50.822;4.376;2023-06-14T15:12:19;10.40;;;2.50;;
23826;SDS011;12094;50.822;4.376;2023-06-14T15:14:53;6.35;;;2.30;;
23826;SDS011;12094;50.822;4.376;2023-06-14T15:17:30;6.05;;;2.42;;
23826;SDS011;12094;50.822;4.376;2023-06-14T15:20:01;9.25;;;2.40;;
23826;SDS011;12094;50.822;4.376;2023-06-14T15:26:15;4.80;;;2.28;;
23826;SDS011;12094;50.822;4.376;2023-06-14T15:28:44;7.72;;;2.30;;
23826;SDS011;12094;50.822;4.376;2023-06-14T15:31:12;5.55;;;2.17;;
23826;SDS011;12094;50.822;4.376;2023-06-14T15:33:43;4.88;;;1.95;;
23826;SDS011;12094;50.822;4.376;2023-06-14T15:39:14;6.32;;;2.42;;
23826;SDS011;12094;50.822;4.376;2023-06-14T15:41:44;6.93;;;2.90;;
23826;SDS011;12094;50.822;4.376;2023-06-14T15:44:14;5.35;;;2.30;;
23826;SDS011;12094;50.822;4.376;2023-06-14T15:46:47;12.82;;;2.63;;
23826;SDS011;12094;50.822;4.376;2023-06-14T15:49:18;7.75;;;2.30;;
23826;SDS011;12094;50.822;4.376;2023-06-14T15:52:21;6.55;;;2.30;;
23826;SDS011;12094;50.822;4.376;2023-06-14T15:54:52;5.72;;;2.30;;
23826;SDS011;12094;50.822;4.376;2023-06-14T15:57:25;8.80;;;2.80;;
23826;SDS011;12094;50.822;4.376;2023-06-14T16:00:02;5.03;;;2.72;;
23826;SDS011;12094;50.822;4.376;2023-06-14T16:02:44;7.63;;;2.83;;
23826;SDS011;12094;50.822;4.376;2023-06-14T16:05:13;7.45;;;2.47;;
23826;SDS011;12094;50.822;4.376;2023-06-14T16:07:43;6.60;;;2.70;;
23826;SDS011;12094;50.822;4.376;2023-06-14T16:10:12;5.50;;;2.50;;
23826;SDS011;12094;50.822;4.376;2023-06-14T16:12:42;10.10;;;2.40;;
23826;SDS011;12094;50.822;4.376;2023-06-14T16:15:13;5.43;;;2.17;;
23826;SDS011;12094;50.822;4.376;2023-06-14T16:17:44;5.38;;;2.50;;
23826;SDS011;12094;50.822;4.376;2023-06-14T16:20:14;5.93;;;2.50;;
23826;SDS011;12094;50.822;4.376;2023-06-14T16:22:46;7.88;;;2.33;;
23826;SDS011;12094;50.822;4.376;2023-06-14T16:25:15;6.78;;;2.67;;
23826;SDS011;12094;50.822;4.376;2023-06-14T16:27:43;3.65;;;2.45;;
23826;SDS011;12094;50.822;4.376;2023-06-14T16:30:11;4.03;;;2.30;;